Time;durP1;ratioP1;P1;durP2;ratioP2;P2;SDS_P1;SDS_P2;PMS_P1;PMS_P2;Temp;Humidity;BMP_temperature;BMP_pressure;BME280_temperature;BME280_humidity;BME280_pressure;Samples;Min_cycle;Max_cycle;Signal;HPM_P1;HPM_P2
2023/03/06 00:03:45;;;;;;;8.95;3.35;;;;;;;6.79;53.92;99556.69;12780730;23;20037;-63
2023/03/06 00:08:47;;;;;;;7.65;3.45;;;;;;;6.89;53.99;99560.84;12779293;23;20116;-62
2023/03/06 00:13:48;;;;;;;8.43;3.95;;;;;;;6.99;53.58;99557.13;12778599;23;20021;-62
2023/03/06 00:18:50;;;;;;;4.70;2.78;;;;;;;6.92;53.33;99552.47;12777205;23;20136;-62
2023/03/06 00:23:51;;;;;;;7.63;3.08;;;;;;;6.94;53.67;99549.63;12779847;23;20029;-60
2023/03/06 00:28:53;;;;;;;8.35;3.60;;;;;;;7.00;53.40;99545.44;12778230;23;20028;-61
2023/03/06 00:33:54;;;;;;;7.32;3.03;;;;;;;7.02;53.13;99536.25;12777421;23;20032;-60
2023/03/06 00:38:56;;;;;;;8.43;3.60;;;;;;;7.01;53.14;99536.41;12751348;23;20354;-61
2023/03/06 00:43:57;;;;;;;4.78;2.85;;;;;;;7.00;53.51;99524.88;12778327;23;20040;-61
2023/03/06 00:48:58;;;;;;;3.92;2.50;;;;;;;6.94;53.85;99520.25;12778548;23;20028;-61
2023/03/06 00:54:00;;;;;;;5.28;2.50;;;;;;;6.91;53.98;99520.56;12780504;23;20025;-60
2023/03/06 00:59:01;;;;;;;5.07;3.15;;;;;;;6.88;53.41;99511.06;12780733;23;20029;-64
2023/03/06 01:04:03;;;;;;;6.80;3.10;;;;;;;6.80;53.63;99499.59;12782743;23;20025;-62
2023/03/06 01:09:05;;;;;;;6.55;2.58;;;;;;;6.86;54.03;99493.56;12782857;23;20025;-61
2023/03/06 01:14:06;;;;;;;6.70;2.90;;;;;;;6.75;54.29;99484.94;12784219;23;20028;-61
2023/03/06 01:19:08;;;;;;;9.48;3.38;;;;;;;6.69;53.86;99482.09;12787452;23;20025;-62
2023/03/06 01:24:09;;;;;;;5.60;2.42;;;;;;;6.65;54.20;99468.25;12783724;23;20036;-63
2023/03/06 01:29:11;;;;;;;8.05;3.35;;;;;;;6.74;53.71;99469.91;12782940;23;20056;-61
2023/03/06 01:34:12;;;;;;;11.10;3.60;;;;;;;6.67;54.10;99455.56;12786825;23;20058;-62
2023/03/06 01:39:14;;;;;;;14.68;4.32;;;;;;;6.59;54.58;99450.25;12780793;23;20025;-61
2023/03/06 01:44:15;;;;;;;7.72;2.78;;;;;;;6.55;54.06;99451.59;12780987;23;20140;-61
2023/03/06 01:49:24;;;;;;;5.35;2.88;;;;;;;6.60;54.78;99449.25;12781387;23;20021;-62
2023/03/06 01:54:31;;;;;;;5.03;2.67;;;;;;;6.54;55.03;99437.44;12782816;23;20041;-61
2023/03/06 01:59:36;;;;;;;4.90;3.08;;;;;;;6.61;54.46;99436.72;12780628;23;20025;-61
2023/03/06 02:04:40;;;;;;;6.00;2.60;;;;;;;6.52;54.43;99431.44;12768318;23;20537;-65
2023/03/06 02:09:41;;;;;;;6.60;3.40;;;;;;;6.38;54.70;99428.63;12743820;23;20039;-64
2023/03/06 02:14:43;;;;;;;10.18;3.70;;;;;;;6.28;56.04;99421.69;12772971;23;20084;-65
2023/03/06 02:20:09;;;;;;;7.13;3.03;;;;;;;6.26;55.76;99415.69;12767733;23;20021;-65
2023/03/06 02:25:42;;;;;;;6.22;2.70;;;;;;;6.28;55.89;99411.00;12800081;23;20012;-65
2023/03/06 02:30:45;;;;;;;6.65;3.03;;;;;;;6.35;56.35;99408.47;12794992;23;20083;-65
2023/03/06 02:35:53;;;;;;;7.10;3.28;;;;;;;6.30;56.25;99405.47;12765591;23;20024;-65
2023/03/06 02:40:56;;;;;;;6.85;2.60;;;;;;;6.37;56.64;99393.09;12795853;23;20031;-64
2023/03/06 02:45:58;;;;;;;5.13;2.75;;;;;;;6.40;56.10;99389.25;12792619;23;20025;-65
2023/03/06 02:51:00;;;;;;;5.20;2.72;;;;;;;6.34;56.34;99375.59;12791708;23;20036;-65
2023/03/06 02:56:01;;;;;;;8.13;3.35;;;;;;;6.36;56.58;99375.44;12789140;23;20079;-64
2023/03/06 03:01:03;;;;;;;6.75;3.50;;;;;;;6.37;56.55;99377.09;12789774;23;20021;-65
2023/03/06 03:06:05;;;;;;;5.60;3.28;;;;;;;6.32;56.97;99371.47;12761876;23;20031;-65
2023/03/06 03:11:08;;;;;;;7.32;3.30;;;;;;;6.27;57.36;99371.13;12790302;23;20083;-64
2023/03/06 03:16:14;;;;;;;4.82;2.75;;;;;;;6.24;57.60;99374.13;12788410;23;20017;-65
2023/03/06 03:21:16;;;;;;;7.30;2.85;;;;;;;6.18;57.74;99367.66;12789113;23;20500;-64
2023/03/06 03:26:20;;;;;;;6.55;3.03;;;;;;;6.15;57.30;99374.16;12787410;23;20021;-65
2023/03/06 03:31:21;;;;;;;9.70;3.38;;;;;;;6.19;57.62;99368.50;12759607;23;20127;-63
2023/03/06 03:36:24;;;;;;;6.53;2.55;;;;;;;6.10;57.66;99373.00;12787834;23;20520;-65
2023/03/06 03:41:26;;;;;;;7.05;3.78;;;;;;;6.01;58.40;99366.06;12786594;23;20021;-64
2023/03/06 03:46:27;;;;;;;9.27;3.33;;;;;;;6.06;57.91;99366.34;12785318;23;20021;-65
2023/03/06 03:51:29;;;;;;;10.50;3.78;;;;;;;6.08;57.92;99357.19;12787342;23;20109;-65
2023/03/06 03:56:31;;;;;;;6.40;3.13;;;;;;;6.09;58.28;99356.19;12783873;23;20029;-66
2023/03/06 04:01:32;;;;;;;7.93;2.55;;;;;;;6.13;57.97;99351.34;12790397;23;20013;-65
2023/03/06 04:06:34;;;;;;;7.45;3.35;;;;;;;6.17;57.98;99351.81;12758307;23;20035;-66
2023/03/06 04:11:36;;;;;;;9.35;4.13;;;;;;;6.08;58.24;99346.53;12794151;23;20036;-66
2023/03/06 04:16:37;;;;;;;8.18;2.83;;;;;;;6.10;58.12;99341.00;12785866;23;20021;-64
2023/03/06 04:21:39;;;;;;;6.90;3.08;;;;;;;6.08;58.52;99327.00;12759840;23;20060;-65
2023/03/06 04:26:40;;;;;;;6.10;3.17;;;;;;;6.09;58.89;99321.50;12792021;23;20029;-66
2023/03/06 04:31:42;;;;;;;7.28;3.45;;;;;;;6.13;59.02;99320.16;12765663;23;20044;-66
2023/03/06 04:36:46;;;;;;;7.05;3.50;;;;;;;6.18;58.57;99316.13;12785852;23;20100;-65
2023/03/06 04:41:47;;;;;;;6.78;3.78;;;;;;;6.22;58.81;99312.97;12786975;23;20090;-65
2023/03/06 04:46:49;;;;;;;8.18;3.47;;;;;;;6.14;59.46;99308.47;12788227;23;20319;-66
2023/03/06 04:51:50;;;;;;;7.75;3.90;;;;;;;6.14;59.48;99310.28;12788289;23;20482;-65
2023/03/06 04:56:51;;;;;;;8.07;4.15;;;;;;;6.13;59.64;99304.13;12797252;23;20033;-66
2023/03/06 05:01:54;;;;;;;7.05;3.38;;;;;;;6.15;59.50;99302.13;12785334;23;20037;-65
2023/03/06 05:06:56;;;;;;;10.50;4.97;;;;;;;6.11;59.42;99302.66;12790373;23;20484;-65
2023/03/06 05:11:57;;;;;;;8.40;4.45;;;;;;;6.09;59.79;99300.16;12798942;23;20051;-64
2023/03/06 05:16:59;;;;;;;12.02;4.65;;;;;;;6.07;59.69;99299.50;12785115;23;20025;-63
2023/03/06 05:22:00;;;;;;;11.90;5.40;;;;;;;6.09;60.14;99304.66;12777320;23;20375;-64
2023/03/06 05:27:02;;;;;;;9.48;4.47;;;;;;;6.15;59.83;99295.97;12761386;23;20100;-62
2023/03/06 05:32:04;;;;;;;8.48;4.60;;;;;;;6.15;60.32;99294.13;12773811;23;20555;-64
2023/03/06 05:37:06;;;;;;;11.80;5.18;;;;;;;6.20;60.12;99292.75;12775530;23;20024;-62
2023/03/06 05:42:07;;;;;;;9.38;4.45;;;;;;;6.35;60.51;99293.69;12775719;23;20087;-63
2023/03/06 05:47:10;;;;;;;8.25;4.45;;;;;;;6.42;60.42;99285.81;12775261;23;20590;-63
2023/03/06 05:52:12;;;;;;;14.20;5.70;;;;;;;6.48;59.91;99277.94;12783534;23;20029;-62
2023/03/06 05:57:13;;;;;;;10.38;5.00;;;;;;;6.36;60.30;99282.03;12775235;23;20350;-62
2023/03/06 06:02:17;;;;;;;10.00;5.25;;;;;;;6.35;60.23;99283.03;12753677;23;20103;-61
2023/03/06 06:07:18;;;;;;;9.15;5.50;;;;;;;6.41;59.89;99282.31;12778091;23;20017;-62
2023/03/06 06:12:19;;;;;;;8.13;5.07;;;;;;;6.54;60.09;99281.75;12783031;23;20021;-62
2023/03/06 06:17:21;;;;;;;11.00;5.50;;;;;;;6.59;59.88;99284.72;12785433;23;20378;-62
2023/03/06 06:22:23;;;;;;;12.13;5.45;;;;;;;6.58;59.93;99276.91;12785722;23;20028;-62
2023/03/06 06:27:25;;;;;;;9.85;5.25;;;;;;;6.35;60.79;99277.69;12787121;23;20021;-62
2023/03/06 06:32:26;;;;;;;9.23;4.93;;;;;;;6.42;60.86;99280.47;12780171;23;20024;-63
2023/03/06 06:37:27;;;;;;;10.43;5.38;;;;;;;6.47;59.95;99275.44;12778593;23;20040;-63
2023/03/06 06:42:29;;;;;;;9.27;5.13;;;;;;;6.34;60.39;99281.38;12781573;23;20025;-63
2023/03/06 06:47:40;;;;;;;9.85;5.30;;;;;;;6.38;59.92;99282.69;12779226;23;20508;-64
2023/03/06 06:52:42;;;;;;;14.73;4.72;;;;;;;6.53;59.98;99283.56;12781236;23;20029;-63
2023/03/06 06:57:44;;;;;;;9.75;4.25;;;;;;;6.58;59.08;99287.59;12779447;23;20088;-64
2023/03/06 07:02:48;;;;;;;8.35;4.60;;;;;;;6.60;59.37;99294.41;12782491;23;20028;-64
2023/03/06 07:07:50;;;;;;;10.75;5.22;;;;;;;6.63;59.44;99293.19;12777810;23;20025;-62
2023/03/06 07:12:52;;;;;;;10.68;4.90;;;;;;;6.56;59.11;99295.75;12777744;23;20025;-63
2023/03/06 07:17:53;;;;;;;8.77;4.95;;;;;;;6.59;59.56;99299.91;12790491;23;20029;-63
2023/03/06 07:22:54;;;;;;;8.20;4.00;;;;;;;6.54;59.57;99287.91;12780195;23;20036;-64
2023/03/06 07:27:56;;;;;;;9.80;5.20;;;;;;;6.63;58.63;99285.19;12777547;23;20044;-64
2023/03/06 07:32:58;;;;;;;9.95;5.57;;;;;;;6.50;59.26;99283.13;12779395;23;20031;-63
2023/03/06 07:38:00;;;;;;;10.48;5.97;;;;;;;6.44;59.73;99284.66;12780930;23;20013;-64
2023/03/06 07:43:02;;;;;;;12.82;6.05;;;;;;;6.47;59.22;99276.28;12774451;23;20025;-63
2023/03/06 07:48:19;;;;;;;8.27;5.50;;;;;;;6.70;58.59;99276.31;12776626;23;20097;-63
2023/03/06 07:53:21;;;;;;;10.10;5.57;;;;;;;6.73;58.85;99285.78;12773889;23;20733;-63
2023/03/06 07:58:23;;;;;;;9.73;5.30;;;;;;;6.76;58.95;99285.44;12771175;23;20025;-64
2023/03/06 08:03:25;;;;;;;12.25;5.22;;;;;;;6.80;58.94;99292.09;12776037;23;20075;-62
2023/03/06 08:08:26;;;;;;;12.32;6.25;;;;;;;6.82;59.32;99286.56;12774619;23;20045;-62
2023/03/06 08:13:27;;;;;;;10.18;5.57;;;;;;;6.89;58.53;99295.53;12776208;23;20021;-64
2023/03/06 08:18:29;;;;;;;11.98;5.60;;;;;;;7.10;58.51;99289.53;12776478;23;20051;-63
2023/03/06 08:23:32;;;;;;;16.95;5.55;;;;;;;7.06;58.67;99289.03;12775330;23;20041;-64
2023/03/06 08:28:34;;;;;;;10.70;5.32;;;;;;;7.11;58.48;99297.38;12773432;23;20024;-62
2023/03/06 08:33:35;;;;;;;13.60;5.72;;;;;;;7.29;57.67;99302.38;12784128;23;20033;-63
2023/03/06 08:38:36;;;;;;;9.93;5.63;;;;;;;7.48;56.95;99302.88;12789583;23;20029;-63
2023/03/06 08:43:39;;;;;;;10.77;5.00;;;;;;;7.46;56.82;99296.88;12786718;23;20075;-62
2023/03/06 08:48:40;;;;;;;10.65;5.53;;;;;;;7.47;56.97;99310.06;12772321;23;20104;-63
2023/03/06 08:53:42;;;;;;;8.57;4.47;;;;;;;7.17;56.02;99311.84;12776957;23;20405;-63
2023/03/06 08:58:45;;;;;;;6.28;3.08;;;;;;;6.97;55.67;99327.53;12776631;23;20053;-62
2023/03/06 09:03:47;;;;;;;8.05;3.70;;;;;;;6.66;56.64;99327.56;12774170;23;20064;-61
2023/03/06 09:08:52;;;;;;;11.25;4.72;;;;;;;6.43;56.69;99327.53;12775085;23;20021;-61
2023/03/06 09:13:55;;;;;;;9.00;4.68;;;;;;;6.27;56.97;99339.09;12776418;23;20017;-62
2023/03/06 09:18:57;;;;;;;9.25;4.80;;;;;;;6.15;57.85;99336.81;12775395;23;20478;-61
2023/03/06 09:23:59;;;;;;;11.30;5.85;;;;;;;6.26;57.83;99332.94;12780220;23;20445;-62
2023/03/06 09:29:01;;;;;;;10.23;5.55;;;;;;;6.11;57.92;99340.84;12778268;23;20362;-62
2023/03/06 09:34:02;;;;;;;12.05;5.78;;;;;;;6.15;57.31;99341.31;12778332;23;20017;-62
2023/03/06 09:39:04;;;;;;;10.18;5.50;;;;;;;6.22;57.66;99344.97;12778916;23;20032;-62
2023/03/06 09:44:13;;;;;;;11.63;5.07;;;;;;;6.24;57.53;99340.28;12776236;23;20044;-62
2023/03/06 09:49:40;;;;;;;8.40;3.63;;;;;;;6.37;57.15;99339.72;12784183;23;20021;-63
2023/03/06 09:54:54;;;;;;;8.60;4.97;;;;;;;6.51;57.67;99336.31;12779181;23;20083;-61
2023/03/06 10:00:11;;;;;;;14.48;6.10;;;;;;;6.76;57.81;99333.50;12776932;23;20025;-64
2023/03/06 10:05:20;;;;;;;11.40;5.50;;;;;;;6.90;57.33;99331.94;12751495;23;20028;-64
2023/03/06 10:10:25;;;;;;;15.57;6.45;;;;;;;7.11;57.36;99321.41;12778857;23;20043;-64
2023/03/06 10:15:32;;;;;;;16.13;8.02;;;;;;;7.19;57.51;99327.69;12778510;23;20036;-64
2023/03/06 10:20:53;;;;;;;12.25;6.78;;;;;;;7.54;57.11;99320.88;12779248;23;20493;-63
2023/03/06 10:26:07;;;;;;;12.13;6.70;;;;;;;7.71;55.52;99314.34;12778473;23;20025;-63
2023/03/06 10:31:21;;;;;;;13.05;6.25;;;;;;;7.63;56.14;99316.28;12775766;23;20075;-63
2023/03/06 10:36:27;;;;;;;15.35;6.75;;;;;;;7.71;55.22;99321.53;12787087;23;20028;-63
2023/03/06 10:41:31;;;;;;;12.57;5.65;;;;;;;7.89;55.49;99311.31;12778240;23;20029;-64
2023/03/06 10:46:35;;;;;;;11.45;5.90;;;;;;;8.13;54.33;99312.03;12777111;23;20701;-65
2023/03/06 10:51:36;;;;;;;12.02;6.57;;;;;;;7.88;53.67;99314.19;12777965;23;20095;-63
2023/03/06 10:56:44;;;;;;;12.35;6.15;;;;;;;8.06;53.66;99314.63;12775441;23;20083;-64
2023/03/06 11:01:48;;;;;;;11.52;6.13;;;;;;;8.14;52.71;99305.69;12781518;23;20099;-64
2023/03/06 11:07:12;;;;;;;9.25;4.57;;;;;;;8.20;51.38;99310.28;12778986;23;20087;-64
2023/03/06 11:12:31;;;;;;;9.05;5.43;;;;;;;8.20;50.11;99304.13;12777630;23;20056;-65
2023/03/06 11:17:36;;;;;;;9.27;4.63;;;;;;;8.47;50.02;99289.22;12775868;23;20528;-64
2023/03/06 11:22:38;;;;;;;7.75;3.83;;;;;;;8.20;48.57;99304.13;12780936;23;20021;-64
2023/03/06 11:27:42;;;;;;;9.43;4.35;;;;;;;7.90;48.71;99307.63;12776352;23;20032;-63
2023/03/06 11:32:52;;;;;;;10.70;5.45;;;;;;;7.79;48.95;99299.22;12749684;23;20308;-63
2023/03/06 11:37:58;;;;;;;11.60;5.80;;;;;;;7.93;49.21;99299.22;12777266;23;20024;-64
2023/03/06 11:43:18;;;;;;;9.70;5.22;;;;;;;7.95;49.63;99291.84;12777881;23;20087;-64
2023/03/06 11:48:27;;;;;;;9.43;5.10;;;;;;;7.97;49.77;99286.31;12778671;23;20045;-64
2023/03/06 11:53:32;;;;;;;11.23;5.75;;;;;;;8.45;48.65;99270.69;12776494;23;20149;-62
2023/03/06 11:59:01;;;;;;;9.18;4.60;;;;;;;8.68;48.46;99250.91;12775860;23;20013;-63
2023/03/06 12:04:21;;;;;;;9.95;4.97;;;;;;;9.22;47.99;99252.19;12776896;23;20028;-61
2023/03/06 12:09:33;;;;;;;8.45;4.85;;;;;;;9.83;46.90;99235.47;12777110;23;20044;-62
2023/03/06 12:14:39;;;;;;;9.25;5.07;;;;;;;10.07;46.15;99243.03;12777550;23;20084;-63
2023/03/06 12:20:05;;;;;;;7.22;4.15;;;;;;;10.04;45.17;99231.88;12777903;23;20021;-62
2023/03/06 12:25:24;;;;;;;7.97;3.95;;;;;;;10.17;44.74;99228.38;12774938;23;20557;-63
2023/03/06 12:30:39;;;;;;;7.60;3.60;;;;;;;9.88;44.59;99228.50;12774312;23;20025;-62
2023/03/06 12:35:46;;;;;;;7.07;3.92;;;;;;;9.68;44.03;99232.94;12775731;23;20087;-62
2023/03/06 12:40:57;;;;;;;;;;;;;;;9.92;43.48;99224.38;12777302;23;20047;-61
2023/03/06 12:46:18;;;;;;;4.93;2.40;;;;;;;9.66;44.10;99229.63;12774907;23;19923;-61
2023/03/06 12:51:20;;;;;;;7.10;3.70;;;;;;;9.51;43.72;99210.94;12777375;23;20097;-64
2023/03/06 12:56:22;;;;;;;7.55;4.50;;;;;;;9.48;44.44;99222.09;12774289;23;20017;-61
2023/03/06 13:01:54;;;;;;;7.35;3.80;;;;;;;9.27;44.27;99215.75;12782024;23;20063;-62
2023/03/06 13:07:28;;;;;;;8.88;4.68;;;;;;;9.22;44.40;99209.31;12783666;23;20024;-61
2023/03/06 13:12:49;;;;;;;6.95;3.33;;;;;;;9.25;44.36;99209.75;12786422;23;20025;-61
2023/03/06 13:17:50;;;;;;;8.35;4.10;;;;;;;8.97;44.05;99220.47;12780492;23;20032;-61
2023/03/06 13:22:51;;;;;;;9.88;4.85;;;;;;;8.93;45.05;99211.16;12779026;23;20021;-60
2023/03/06 13:27:53;;;;;;;7.25;3.88;;;;;;;9.08;44.83;99209.22;12782137;23;20029;-60
2023/03/06 13:32:55;;;;;;;9.05;4.47;;;;;;;9.40;44.57;99206.97;12778714;23;20032;-60
2023/03/06 13:37:58;;;;;;;7.55;4.05;;;;;;;9.37;44.52;99198.50;12775541;23;20382;-60
2023/03/06 13:43:08;;;;;;;7.80;4.72;;;;;;;9.35;45.48;99195.19;12775333;23;20017;-61
2023/03/06 13:48:36;;;;;;;6.82;4.13;;;;;;;9.47;45.52;99199.78;12779454;23;20036;-61
2023/03/06 13:54:12;;;;;;;9.48;4.35;;;;;;;9.49;45.22;99186.19;12780749;23;20036;-60
2023/03/06 13:59:19;;;;;;;9.35;5.32;;;;;;;9.38;46.29;99184.03;12753435;23;20024;-60
2023/03/06 14:04:26;;;;;;;9.02;4.68;;;;;;;9.31;46.33;99184.81;12779543;23;20543;-62
2023/03/06 14:09:34;;;;;;;12.38;4.57;;;;;;;9.30;46.63;99180.50;12787109;23;20348;-63
2023/03/06 14:14:42;;;;;;;10.05;3.85;;;;;;;9.35;46.25;99171.84;12756011;23;20509;-64
2023/03/06 14:19:44;;;;;;;9.88;4.60;;;;;;;9.25;46.88;99174.06;12780401;23;20021;-62
2023/03/06 14:25:29;;;;;;;6.55;4.00;;;;;;;9.11;46.95;99168.63;12752034;23;20485;-62
2023/03/06 14:30:30;;;;;;;8.90;3.97;;;;;;;9.25;46.63;99168.72;12471069;23;20115;-63
2023/03/06 14:35:33;;;;;;;8.50;4.82;;;;;;;9.37;46.33;99156.41;12714022;23;20031;-64
2023/03/06 14:40:41;;;;;;;7.53;4.45;;;;;;;9.63;45.71;99136.91;12774272;23;20405;-63
2023/03/06 14:46:01;;;;;;;7.75;4.32;;;;;;;9.55;45.77;99133.59;12751576;23;20025;-63
2023/03/06 14:51:04;;;;;;;9.57;4.68;;;;;;;9.63;45.57;99139.59;12779605;23;20028;-63
2023/03/06 14:56:06;;;;;;;8.60;4.68;;;;;;;9.70;45.27;99143.16;12775134;23;20104;-67
2023/03/06 15:01:10;;;;;;;10.65;5.25;;;;;;;9.70;45.35;99134.28;12780394;23;20016;-66
2023/03/06 15:06:21;;;;;;;8.25;4.75;;;;;;;9.55;44.65;99153.19;12776621;23;20025;-64
2023/03/06 15:11:23;;;;;;;10.18;4.55;;;;;;;9.41;44.70;99151.47;12776155;23;20025;-62
2023/03/06 15:16:26;;;;;;;12.10;5.50;;;;;;;9.23;44.72;99154.66;12775287;23;20090;-62
2023/03/06 15:21:36;;;;;;;8.82;4.82;;;;;;;8.99;44.59;99155.97;12777552;23;20089;-64
2023/03/06 15:26:39;;;;;;;9.63;4.10;;;;;;;8.85;44.40;99153.16;12749214;23;20083;-63
2023/03/06 15:31:43;;;;;;;10.43;4.90;;;;;;;8.93;44.45;99157.56;12777356;23;20389;-64
2023/03/06 15:36:53;;;;;;;8.90;5.68;;;;;;;8.91;44.20;99157.75;12772238;23;20036;-65
2023/03/06 15:41:56;;;;;;;10.52;5.25;;;;;;;8.97;43.86;99152.66;12775736;23;20050;-65
2023/03/06 15:46:58;;;;;;;10.68;3.65;;;;;;;8.72;44.49;99153.88;12773103;23;20091;-66
2023/03/06 15:52:09;;;;;;;10.70;5.30;;;;;;;8.68;45.13;99154.47;12773403;23;20020;-63
2023/03/06 15:57:29;;;;;;;11.27;5.47;;;;;;;8.73;44.46;99144.00;12784981;23;20025;-66
2023/03/06 16:02:31;;;;;;;8.90;4.90;;;;;;;8.62;45.47;99140.00;12775384;23;20025;-65
2023/03/06 16:07:32;;;;;;;12.25;5.68;;;;;;;8.82;45.13;99139.31;12775689;23;20898;-66
2023/03/06 16:12:34;;;;;;;11.25;5.43;;;;;;;8.77;45.14;99139.94;12777498;23;20033;-65
2023/03/06 16:17:36;;;;;;;9.32;5.68;;;;;;;8.73;44.89;99144.84;12774483;23;20025;-66
2023/03/06 16:22:37;;;;;;;11.32;5.57;;;;;;;8.72;44.70;99150.38;12777400;23;20017;-63
2023/03/06 16:27:42;;;;;;;12.40;5.47;;;;;;;8.51;45.32;99152.06;12750872;23;20410;-66
2023/03/06 16:32:44;;;;;;;9.27;5.18;;;;;;;8.46;45.99;99157.16;12751717;23;20358;-65
2023/03/06 16:37:46;;;;;;;14.15;6.10;;;;;;;8.49;45.44;99159.47;12777603;23;20032;-66
2023/03/06 16:42:49;;;;;;;11.05;5.57;;;;;;;8.45;45.11;99158.19;12776420;23;20032;-67
2023/03/06 16:47:53;;;;;;;11.27;6.07;;;;;;;8.51;45.27;99160.09;12751121;23;20076;-66
2023/03/06 16:52:56;;;;;;;13.02;6.10;;;;;;;8.47;45.79;99156.16;12777036;23;20055;-66
2023/03/06 16:57:58;;;;;;;13.95;5.32;;;;;;;8.50;45.41;99168.31;12768336;23;20028;-70
2023/03/06 17:03:00;;;;;;;11.50;5.95;;;;;;;8.54;45.17;99161.56;12775891;23;20033;-66
2023/03/06 17:08:03;;;;;;;12.55;5.43;;;;;;;8.57;45.72;99166.56;12758633;23;20323;-66
2023/03/06 17:13:07;;;;;;;11.45;5.82;;;;;;;8.50;45.78;99160.28;12807117;23;20051;-64
2023/03/06 17:18:08;;;;;;;10.93;6.53;;;;;;;8.50;45.61;99162.97;12790717;23;20051;-66
2023/03/06 17:23:10;;;;;;;10.45;5.75;;;;;;;8.52;46.13;99163.59;12783193;23;20025;-71
2023/03/06 17:28:12;;;;;;;10.60;5.82;;;;;;;8.48;46.01;99162.34;12763949;23;20466;-71
2023/03/06 17:33:15;;;;;;;13.98;6.35;;;;;;;8.44;45.91;99161.88;12769151;23;20029;-73
2023/03/06 17:38:17;;;;;;;12.85;6.43;;;;;;;8.39;46.59;99161.59;12748268;23;20021;-69
2023/03/06 17:43:19;;;;;;;16.15;7.32;;;;;;;8.29;46.88;99167.28;12753024;23;20025;-71
2023/03/06 17:48:21;;;;;;;11.88;5.85;;;;;;;8.06;46.79;99175.47;12754073;23;20025;-70
2023/03/06 17:53:22;;;;;;;11.55;6.13;;;;;;;8.07;46.97;99181.66;12775969;23;20075;-69
2023/03/06 17:58:25;;;;;;;11.75;4.70;;;;;;;8.04;47.50;99176.69;12747835;23;20052;-67
2023/03/06 18:03:27;;;;;;;12.02;4.65;;;;;;;7.98;47.42;99180.09;12778641;23;20029;-68
2023/03/06 18:08:30;;;;;;;8.65;4.45;;;;;;;7.91;48.21;99174.66;12787683;23;20029;-69
2023/03/06 18:13:33;;;;;;;10.35;4.70;;;;;;;7.97;47.75;99173.09;12779835;23;20088;-67
2023/03/06 18:18:35;;;;;;;13.25;5.25;;;;;;;7.90;47.99;99173.84;12777770;23;20406;-72
2023/03/06 18:23:38;;;;;;;11.23;4.55;;;;;;;7.92;49.28;99166.47;12779201;23;20458;-69
2023/03/06 18:28:43;;;;;;;10.70;5.20;;;;;;;8.00;48.74;99162.84;12750450;23;20028;-70
2023/03/06 18:33:47;;;;;;;8.43;4.72;;;;;;;7.97;49.40;99163.22;12783706;23;20500;-67
2023/03/06 18:38:49;;;;;;;12.90;5.20;;;;;;;7.76;49.73;99158.66;12779638;23;20258;-68
2023/03/06 18:43:51;;;;;;;11.63;4.70;;;;;;;7.72;49.24;99160.88;12782041;23;20036;-67
2023/03/06 18:48:53;;;;;;;8.23;4.18;;;;;;;7.57;50.00;99162.75;12777530;23;20083;-69
2023/03/06 18:53:56;;;;;;;9.02;4.82;;;;;;;7.31;49.85;99165.88;12788193;23;20091;-66
2023/03/06 18:59:03;;;;;;;8.27;4.35;;;;;;;7.21;49.57;99163.50;12726566;23;20056;-68
2023/03/06 19:04:04;;;;;;;11.15;4.82;;;;;;;7.07;50.41;99167.81;12777198;23;20477;-69
2023/03/06 19:09:06;;;;;;;11.95;5.13;;;;;;;7.00;49.84;99166.88;12788594;23;20020;-68
2023/03/06 19:14:08;;;;;;;13.02;5.45;;;;;;;6.81;50.19;99162.03;12775858;23;20035;-67
2023/03/06 19:19:09;;;;;;;13.52;5.28;;;;;;;6.77;49.88;99174.91;12772551;23;20056;-66
2023/03/06 19:24:13;;;;;;;10.57;5.07;;;;;;;6.63;49.63;99184.56;12779337;23;20722;-67
2023/03/06 19:29:15;;;;;;;11.43;5.03;;;;;;;6.53;50.24;99179.44;12752334;23;20091;-67
2023/03/06 19:34:16;;;;;;;11.38;5.45;;;;;;;6.49;50.39;99186.16;12754393;23;20462;-69
2023/03/06 19:39:18;;;;;;;13.93;6.50;;;;;;;6.35;50.41;99187.75;12793134;23;20017;-67
2023/03/06 19:44:19;;;;;;;14.25;6.90;;;;;;;6.28;50.47;99178.81;12814170;23;20024;-66
2023/03/06 19:49:21;;;;;;;15.30;6.68;;;;;;;6.19;50.48;99185.22;12810485;23;20021;-66
2023/03/06 19:54:24;;;;;;;12.18;6.88;;;;;;;6.14;50.79;99184.91;12817991;23;20009;-68
2023/03/06 19:59:25;;;;;;;14.35;6.47;;;;;;;6.17;50.43;99178.41;12823599;22;20032;-66
2023/03/06 20:04:33;;;;;;;17.00;6.85;;;;;;;6.05;51.24;99167.31;12840748;23;20398;-65
2023/03/06 20:09:35;;;;;;;14.63;6.53;;;;;;;5.96;51.34;99169.16;12878913;22;20024;-66
2023/03/06 20:14:36;;;;;;;12.20;5.88;;;;;;;5.95;51.43;99156.84;12886181;23;20051;-67
2023/03/06 20:19:38;;;;;;;16.98;6.88;;;;;;;5.86;51.80;99149.88;12863518;22;20092;-67
2023/03/06 20:24:39;;;;;;;15.18;7.10;;;;;;;5.78;51.94;99150.72;12878186;22;20008;-67
2023/03/06 20:29:44;;;;;;;17.75;7.03;;;;;;;5.75;52.01;99151.91;12890659;22;20008;-68
2023/03/06 20:34:45;;;;;;;17.55;7.63;;;;;;;5.72;52.31;99154.94;12850707;23;20353;-64
2023/03/06 20:39:47;;;;;;;19.80;8.63;;;;;;;5.69;52.28;99165.13;12861455;23;20036;-66
2023/03/06 20:44:48;;;;;;;14.82;6.90;;;;;;;5.65;52.30;99164.66;12849978;23;20056;-65
2023/03/06 20:55:10;;;;;;;17.33;7.38;;;;;;;5.58;52.32;99169.00;12965976;22;20006;-92
2023/03/06 21:00:15;;;;;;;;;;;;;;;5.52;52.36;99159.84;12919464;22;20032;-93
2023/03/06 21:05:16;;;;;;;16.52;6.53;;;;;;;5.54;52.03;99157.03;12935005;22;19916;-91
2023/03/06 21:10:18;;;;;;;16.60;7.28;;;;;;;5.50;52.96;99153.03;12941674;22;20008;-91
2023/03/06 21:15:25;;;;;;;18.27;8.55;;;;;;;5.44;53.18;99145.75;12877637;22;20011;-91
2023/03/06 21:20:28;;;;;;;18.70;8.75;;;;;;;5.48;53.47;99147.88;12922656;22;20028;-91
2023/03/06 21:25:30;;;;;;;19.80;7.45;;;;;;;5.46;53.38;99146.41;12946257;22;20004;-93
2023/03/06 21:30:45;;;;;;;18.27;8.52;;;;;;;5.47;53.35;99145.38;12855643;23;20067;-63
2023/03/06 21:35:47;;;;;;;18.67;8.40;;;;;;;5.35;53.82;99134.25;12935307;23;20027;-68
2023/03/06 21:40:48;;;;;;;19.95;8.93;;;;;;;5.26;54.29;99137.97;12941802;23;20012;-66
2023/03/06 21:45:52;;;;;;;20.83;9.15;;;;;;;5.23;54.21;99131.13;12930939;23;20023;-67
2023/03/06 21:51:04;;;;;;;16.58;8.07;;;;;;;5.21;54.54;99114.50;12928317;23;20031;-66
2023/03/06 21:56:06;;;;;;;17.50;8.13;;;;;;;5.23;54.49;99109.00;12919592;23;20024;-67
2023/03/06 22:01:12;;;;;;;22.80;9.45;;;;;;;5.19;55.23;99110.34;12935474;23;20043;-66
2023/03/06 22:06:17;;;;;;;18.17;8.52;;;;;;;5.22;55.15;99104.69;12899316;23;20058;-65
2023/03/06 22:11:20;;;;;;;17.65;8.50;;;;;;;5.15;55.38;99097.41;12891642;22;20027;-69
2023/03/06 22:16:22;;;;;;;19.80;8.43;;;;;;;5.26;55.37;99098.84;12923088;23;20470;-68
2023/03/06 22:21:24;;;;;;;19.83;9.30;;;;;;;5.27;55.48;99091.66;12935468;23;20035;-66
2023/03/06 22:26:27;;;;;;;20.10;9.57;;;;;;;5.24;56.01;99094.69;12933416;23;20028;-66
2023/03/06 22:31:29;;;;;;;17.60;9.15;;;;;;;5.27;56.38;99086.34;12925881;23;20068;-64
2023/03/06 22:36:31;;;;;;;22.20;9.43;;;;;;;5.22;56.75;99083.38;12922784;23;20024;-64
2023/03/06 22:41:32;;;;;;;21.13;9.13;;;;;;;5.14;56.94;99076.25;12923342;23;20028;-65
2023/03/06 22:46:34;;;;;;;20.05;9.38;;;;;;;5.12;56.94;99067.59;12912371;23;20020;-66
2023/03/06 22:51:36;;;;;;;23.52;10.20;;;;;;;5.10;57.46;99074.94;12910936;23;20326;-67
2023/03/06 22:56:37;;;;;;;22.52;9.32;;;;;;;5.09;57.57;99068.75;12907745;23;20032;-67
2023/03/06 23:01:39;;;;;;;23.52;10.38;;;;;;;5.12;57.11;99063.09;12917954;23;20019;-65
2023/03/06 23:06:41;;;;;;;24.33;11.43;;;;;;;5.18;57.50;99064.25;12910375;23;20024;-66
2023/03/06 23:11:43;;;;;;;24.27;10.57;;;;;;;5.16;57.54;99052.94;12924554;22;20028;-67
2023/03/06 23:16:44;;;;;;;28.25;11.18;;;;;;;5.10;58.15;99049.13;12920936;23;20020;-66
2023/03/06 23:21:46;;;;;;;24.55;11.10;;;;;;;5.14;58.30;99049.63;12931820;23;20031;-68
2023/03/06 23:26:48;;;;;;;20.55;10.05;;;;;;;5.14;58.37;99045.13;12939655;23;20028;-67
2023/03/06 23:31:49;;;;;;;24.50;11.20;;;;;;;5.20;58.36;99048.09;12912136;23;20019;-67
2023/03/06 23:36:50;;;;;;;23.77;11.45;;;;;;;5.22;57.79;99046.91;12924094;23;20031;-67
2023/03/06 23:41:52;;;;;;;23.63;10.70;;;;;;;5.26;58.71;99045.56;12927620;23;20028;-67
2023/03/06 23:46:53;;;;;;;21.15;10.02;;;;;;;5.33;58.61;99041.22;12926782;23;20026;-66
2023/03/06 23:51:54;;;;;;;22.67;10.60;;;;;;;5.39;57.61;99037.00;12929962;23;20016;-66